sensor_id;sensor_type;location;lat;lon;timestamp;temperature;humidity
69359;HTU21D;56520;49.066;8.660;2023-10-19T00:00:19;10.97;96.44
69359;HTU21D;56520;49.066;8.660;2023-10-19T00:02:49;10.99;96.49
69359;HTU21D;56520;49.066;8.660;2023-10-19T00:05:16;11.00;96.50
69359;HTU21D;56520;49.066;8.660;2023-10-19T00:07:42;11.02;96.55
69359;HTU21D;56520;49.066;8.660;2023-10-19T00:10:08;11.02;96.56
69359;HTU21D;56520;49.066;8.660;2023-10-19T00:12:34;11.02;96.58
69359;HTU21D;56520;49.066;8.660;2023-10-19T00:14:59;11.03;96.61
69359;HTU21D;56520;49.066;8.660;2023-10-19T00:17:25;11.02;96.60
69359;HTU21D;56520;49.066;8.660;2023-10-19T00:19:52;11.02;96.65
69359;HTU21D;56520;49.066;8.660;2023-10-19T00:22:36;11.04;96.69
69359;HTU21D;56520;49.066;8.660;2023-10-19T00:25:01;11.04;96.71
69359;HTU21D;56520;49.066;8.660;2023-10-19T00:27:29;11.07;96.75
69359;HTU21D;56520;49.066;8.660;2023-10-19T00:29:54;11.07;96.79
69359;HTU21D;56520;49.066;8.660;2023-10-19T00:32:30;11.08;96.81
69359;HTU21D;56520;49.066;8.660;2023-10-19T00:34:56;11.08;96.84
69359;HTU21D;56520;49.066;8.660;2023-10-19T00:37:21;11.08;96.87
69359;HTU21D;56520;49.066;8.660;2023-10-19T00:39:51;11.09;96.89
69359;HTU21D;56520;49.066;8.660;2023-10-19T00:42:20;11.11;96.96
69359;HTU21D;56520;49.066;8.660;2023-10-19T00:44:50;11.12;96.99
69359;HTU21D;56520;49.066;8.660;2023-10-19T00:47:16;11.15;97.03
69359;HTU21D;56520;49.066;8.660;2023-10-19T00:49:45;11.15;97.05
69359;HTU21D;56520;49.066;8.660;2023-10-19T00:52:12;11.14;97.05
69359;HTU21D;56520;49.066;8.660;2023-10-19T00:54:44;11.17;97.07
69359;HTU21D;56520;49.066;8.660;2023-10-19T00:57:15;11.18;97.10
69359;HTU21D;56520;49.066;8.660;2023-10-19T00:59:45;11.18;97.10
69359;HTU21D;56520;49.066;8.660;2023-10-19T01:02:16;11.17;97.12
69359;HTU21D;56520;49.066;8.660;2023-10-19T01:04:48;11.19;97.16
69359;HTU21D;56520;49.066;8.660;2023-10-19T01:07:30;11.22;97.17
69359;HTU21D;56520;49.066;8.660;2023-10-19T01:10:00;11.25;97.20
69359;HTU21D;56520;49.066;8.660;2023-10-19T01:12:27;11.24;97.20
69359;HTU21D;56520;49.066;8.660;2023-10-19T01:17:36;11.25;97.26
69359;HTU21D;56520;49.066;8.660;2023-10-19T01:20:16;11.26;97.27
69359;HTU21D;56520;49.066;8.660;2023-10-19T01:23:04;11.28;97.42
69359;HTU21D;56520;49.066;8.660;2023-10-19T01:28:08;11.32;98.02
69359;HTU21D;56520;49.066;8.660;2023-10-19T01:30:35;11.32;98.16
69359;HTU21D;56520;49.066;8.660;2023-10-19T01:33:04;11.33;98.21
69359;HTU21D;56520;49.066;8.660;2023-10-19T01:35:38;11.30;98.12
69359;HTU21D;56520;49.066;8.660;2023-10-19T01:38:22;11.32;98.36
69359;HTU21D;56520;49.066;8.660;2023-10-19T01:40:47;11.31;98.39
69359;HTU21D;56520;49.066;8.660;2023-10-19T01:43:14;11.29;98.51
69359;HTU21D;56520;49.066;8.660;2023-10-19T01:45:46;11.30;98.74
69359;HTU21D;56520;49.066;8.660;2023-10-19T01:48:12;11.30;98.61
69359;HTU21D;56520;49.066;8.660;2023-10-19T01:50:39;11.31;99.08
69359;HTU21D;56520;49.066;8.660;2023-10-19T01:53:05;11.29;98.93
69359;HTU21D;56520;49.066;8.660;2023-10-19T01:55:38;11.30;99.30
69359;HTU21D;56520;49.066;8.660;2023-10-19T01:58:03;11.29;99.18
69359;HTU21D;56520;49.066;8.660;2023-10-19T02:00:29;11.29;99.15
69359;HTU21D;56520;49.066;8.660;2023-10-19T02:02:54;11.29;99.20
69359;HTU21D;56520;49.066;8.660;2023-10-19T02:05:21;11.29;99.19
69359;HTU21D;56520;49.066;8.660;2023-10-19T02:07:47;11.30;99.28
69359;HTU21D;56520;49.066;8.660;2023-10-19T02:10:12;11.29;99.29
69359;HTU21D;56520;49.066;8.660;2023-10-19T02:12:39;11.28;99.28
69359;HTU21D;56520;49.066;8.660;2023-10-19T02:15:07;11.30;99.42
69359;HTU21D;56520;49.066;8.660;2023-10-19T02:17:33;11.30;99.46
69359;HTU21D;56520;49.066;8.660;2023-10-19T02:19:59;11.31;99.65
69359;HTU21D;56520;49.066;8.660;2023-10-19T02:22:24;11.29;99.48
69359;HTU21D;56520;49.066;8.660;2023-10-19T02:24:50;11.30;99.51
69359;HTU21D;56520;49.066;8.660;2023-10-19T02:27:15;11.30;99.49
69359;HTU21D;56520;49.066;8.660;2023-10-19T02:29:40;11.29;99.43
69359;HTU21D;56520;49.066;8.660;2023-10-19T02:32:07;11.30;99.49
69359;HTU21D;56520;49.066;8.660;2023-10-19T02:34:33;11.29;99.46
69359;HTU21D;56520;49.066;8.660;2023-10-19T02:37:00;11.29;99.44
69359;HTU21D;56520;49.066;8.660;2023-10-19T02:39:26;11.31;99.37
69359;HTU21D;56520;49.066;8.660;2023-10-19T02:41:53;11.28;99.32
69359;HTU21D;56520;49.066;8.660;2023-10-19T02:44:20;11.27;99.26
69359;HTU21D;56520;49.066;8.660;2023-10-19T02:46:52;11.27;99.25
69359;HTU21D;56520;49.066;8.660;2023-10-19T02:49:21;11.29;99.24
69359;HTU21D;56520;49.066;8.660;2023-10-19T02:51:48;11.31;99.21
69359;HTU21D;56520;49.066;8.660;2023-10-19T02:54:15;11.33;99.25
69359;HTU21D;56520;49.066;8.660;2023-10-19T02:56:52;11.37;99.21
69359;HTU21D;56520;49.066;8.660;2023-10-19T02:59:19;11.37;99.17
69359;HTU21D;56520;49.066;8.660;2023-10-19T03:01:49;11.37;99.15
69359;HTU21D;56520;49.066;8.660;2023-10-19T03:04:16;11.39;99.13
69359;HTU21D;56520;49.066;8.660;2023-10-19T03:06:41;11.40;99.12
69359;HTU21D;56520;49.066;8.660;2023-10-19T03:09:08;11.44;99.10
69359;HTU21D;56520;49.066;8.660;2023-10-19T03:11:54;11.46;99.13
69359;HTU21D;56520;49.066;8.660;2023-10-19T03:14:24;11.47;99.13
69359;HTU21D;56520;49.066;8.660;2023-10-19T03:16:50;11.47;99.07
69359;HTU21D;56520;49.066;8.660;2023-10-19T03:19:16;11.44;99.02
69359;HTU21D;56520;49.066;8.660;2023-10-19T03:21:42;11.44;99.02
69359;HTU21D;56520;49.066;8.660;2023-10-19T03:24:14;11.43;99.01
69359;HTU21D;56520;49.066;8.660;2023-10-19T03:26:58;11.42;99.01
69359;HTU21D;56520;49.066;8.660;2023-10-19T03:29:25;11.41;99.01
69359;HTU21D;56520;49.066;8.660;2023-10-19T03:31:57;11.42;99.00
69359;HTU21D;56520;49.066;8.660;2023-10-19T03:34:24;11.41;99.00
69359;HTU21D;56520;49.066;8.660;2023-10-19T03:36:50;11.41;99.02
69359;HTU21D;56520;49.066;8.660;2023-10-19T03:39:20;11.41;99.01
69359;HTU21D;56520;49.066;8.660;2023-10-19T03:41:46;11.41;99.04
69359;HTU21D;56520;49.066;8.660;2023-10-19T03:44:12;11.41;99.05
69359;HTU21D;56520;49.066;8.660;2023-10-19T03:46:50;11.40;99.04
69359;HTU21D;56520;49.066;8.660;2023-10-19T03:49:22;11.39;99.05
69359;HTU21D;56520;49.066;8.660;2023-10-19T03:51:48;11.39;99.06
69359;HTU21D;56520;49.066;8.660;2023-10-19T03:54:45;11.38;99.06
69359;HTU21D;56520;49.066;8.660;2023-10-19T03:57:14;11.36;99.04
69359;HTU21D;56520;49.066;8.660;2023-10-19T03:59:50;11.34;99.05
69359;HTU21D;56520;49.066;8.660;2023-10-19T04:02:21;11.34;99.05
69359;HTU21D;56520;49.066;8.660;2023-10-19T04:04:47;11.36;99.06
69359;HTU21D;56520;49.066;8.660;2023-10-19T04:07:18;11.38;99.06
69359;HTU21D;56520;49.066;8.660;2023-10-19T04:09:56;11.37;99.07
69359;HTU21D;56520;49.066;8.660;2023-10-19T04:12:38;11.40;99.06
69359;HTU21D;56520;49.066;8.660;2023-10-19T04:15:05;11.41;99.08
69359;HTU21D;56520;49.066;8.660;2023-10-19T04:17:51;11.43;99.07
69359;HTU21D;56520;49.066;8.660;2023-10-19T04:20:18;11.42;99.05
69359;HTU21D;56520;49.066;8.660;2023-10-19T04:22:44;11.40;99.03
69359;HTU21D;56520;49.066;8.660;2023-10-19T04:25:11;11.34;99.02
69359;HTU21D;56520;49.066;8.660;2023-10-19T04:27:44;11.33;99.06
69359;HTU21D;56520;49.066;8.660;2023-10-19T04:30:11;11.31;99.05
69359;HTU21D;56520;49.066;8.660;2023-10-19T04:32:47;11.26;99.06
69359;HTU21D;56520;49.066;8.660;2023-10-19T04:35:13;11.22;99.05
69359;HTU21D;56520;49.066;8.660;2023-10-19T04:37:40;11.17;99.06
69359;HTU21D;56520;49.066;8.660;2023-10-19T04:40:08;11.13;99.08
69359;HTU21D;56520;49.066;8.660;2023-10-19T04:42:34;11.08;99.06
69359;HTU21D;56520;49.066;8.660;2023-10-19T04:45:02;11.04;99.07
69359;HTU21D;56520;49.066;8.660;2023-10-19T04:47:28;11.01;99.08
69359;HTU21D;56520;49.066;8.660;2023-10-19T04:49:53;11.00;99.08
69359;HTU21D;56520;49.066;8.660;2023-10-19T04:52:18;10.98;99.09
69359;HTU21D;56520;49.066;8.660;2023-10-19T04:54:44;10.94;99.09
69359;HTU21D;56520;49.066;8.660;2023-10-19T04:57:09;10.89;99.08
69359;HTU21D;56520;49.066;8.660;2023-10-19T04:59:36;10.85;99.07
69359;HTU21D;56520;49.066;8.660;2023-10-19T05:02:01;10.80;99.05
69359;HTU21D;56520;49.066;8.660;2023-10-19T05:04:28;10.73;99.06
69359;HTU21D;56520;49.066;8.660;2023-10-19T05:06:54;10.70;99.04
69359;HTU21D;56520;49.066;8.660;2023-10-19T05:09:20;10.68;99.06
69359;HTU21D;56520;49.066;8.660;2023-10-19T05:11:46;10.64;99.11
69359;HTU21D;56520;49.066;8.660;2023-10-19T05:14:14;10.58;99.16
69359;HTU21D;56520;49.066;8.660;2023-10-19T05:16:40;10.53;99.14
69359;HTU21D;56520;49.066;8.660;2023-10-19T05:19:05;10.46;99.18
69359;HTU21D;56520;49.066;8.660;2023-10-19T05:21:31;10.43;99.21
69359;HTU21D;56520;49.066;8.660;2023-10-19T05:23:56;10.38;99.22
69359;HTU21D;56520;49.066;8.660;2023-10-19T05:26:22;10.38;99.25
69359;HTU21D;56520;49.066;8.660;2023-10-19T05:28:47;10.35;99.31
69359;HTU21D;56520;49.066;8.660;2023-10-19T05:31:13;10.34;99.30
69359;HTU21D;56520;49.066;8.660;2023-10-19T05:33:40;10.34;99.30
69359;HTU21D;56520;49.066;8.660;2023-10-19T05:36:05;10.35;99.32
69359;HTU21D;56520;49.066;8.660;2023-10-19T05:38:31;10.34;99.32
69359;HTU21D;56520;49.066;8.660;2023-10-19T05:40:58;10.34;99.32
69359;HTU21D;56520;49.066;8.660;2023-10-19T05:43:25;10.30;99.33
69359;HTU21D;56520;49.066;8.660;2023-10-19T05:45:50;10.30;99.36
69359;HTU21D;56520;49.066;8.660;2023-10-19T05:48:16;10.27;99.34
69359;HTU21D;56520;49.066;8.660;2023-10-19T05:50:42;10.25;99.32
69359;HTU21D;56520;49.066;8.660;2023-10-19T05:53:08;10.26;99.32
69359;HTU21D;56520;49.066;8.660;2023-10-19T05:55:33;10.27;99.37
69359;HTU21D;56520;49.066;8.660;2023-10-19T05:58:01;10.26;99.35
69359;HTU21D;56520;49.066;8.660;2023-10-19T06:00:29;10.24;99.38
69359;HTU21D;56520;49.066;8.660;2023-10-19T06:02:55;10.22;99.36
69359;HTU21D;56520;49.066;8.660;2023-10-19T06:05:21;10.20;99.37
69359;HTU21D;56520;49.066;8.660;2023-10-19T06:07:48;10.19;99.35
69359;HTU21D;56520;49.066;8.660;2023-10-19T06:10:15;10.20;99.45
69359;HTU21D;56520;49.066;8.660;2023-10-19T06:12:45;10.22;99.43
69359;HTU21D;56520;49.066;8.660;2023-10-19T06:15:11;10.22;99.42
69359;HTU21D;56520;49.066;8.660;2023-10-19T06:17:41;10.25;99.43
69359;HTU21D;56520;49.066;8.660;2023-10-19T06:20:08;10.27;99.45
69359;HTU21D;56520;49.066;8.660;2023-10-19T06:22:47;10.28;99.48
69359;HTU21D;56520;49.066;8.660;2023-10-19T06:25:20;10.34;99.47
69359;HTU21D;56520;49.066;8.660;2023-10-19T06:27:47;10.31;99.48
69359;HTU21D;56520;49.066;8.660;2023-10-19T06:30:13;10.33;99.47
69359;HTU21D;56520;49.066;8.660;2023-10-19T06:32:50;10.36;99.48
69359;HTU21D;56520;49.066;8.660;2023-10-19T06:35:17;10.38;99.48
69359;HTU21D;56520;49.066;8.660;2023-10-19T06:37:43;10.39;99.51
69359;HTU21D;56520;49.066;8.660;2023-10-19T06:40:09;10.38;99.53
69359;HTU21D;56520;49.066;8.660;2023-10-19T06:42:37;10.38;99.55
69359;HTU21D;56520;49.066;8.660;2023-10-19T06:45:02;10.38;99.55
69359;HTU21D;56520;49.066;8.660;2023-10-19T06:47:28;10.39;99.56
69359;HTU21D;56520;49.066;8.660;2023-10-19T06:49:54;10.41;99.54
69359;HTU21D;56520;49.066;8.660;2023-10-19T06:52:21;10.42;99.55
69359;HTU21D;56520;49.066;8.660;2023-10-19T06:54:46;10.43;99.58
69359;HTU21D;56520;49.066;8.660;2023-10-19T06:57:12;10.45;99.58
69359;HTU21D;56520;49.066;8.660;2023-10-19T06:59:37;10.49;99.58
69359;HTU21D;56520;49.066;8.660;2023-10-19T07:02:04;10.52;99.60
69359;HTU21D;56520;49.066;8.660;2023-10-19T07:04:29;10.55;99.59
69359;HTU21D;56520;49.066;8.660;2023-10-19T07:06:56;10.59;99.60
69359;HTU21D;56520;49.066;8.660;2023-10-19T07:09:22;10.64;99.60
69359;HTU21D;56520;49.066;8.660;2023-10-19T07:11:49;10.67;99.59
69359;HTU21D;56520;49.066;8.660;2023-10-19T07:14:18;10.71;99.58
69359;HTU21D;56520;49.066;8.660;2023-10-19T07:16:44;10.75;99.58
69359;HTU21D;56520;49.066;8.660;2023-10-19T07:19:10;10.81;99.58
69359;HTU21D;56520;49.066;8.660;2023-10-19T07:21:35;10.86;99.56
69359;HTU21D;56520;49.066;8.660;2023-10-19T07:24:03;10.92;99.55
69359;HTU21D;56520;49.066;8.660;2023-10-19T07:26:31;10.97;99.54
69359;HTU21D;56520;49.066;8.660;2023-10-19T07:28:59;11.04;99.55
69359;HTU21D;56520;49.066;8.660;2023-10-19T07:31:25;11.11;99.55
69359;HTU21D;56520;49.066;8.660;2023-10-19T07:33:53;11.17;99.58
69359;HTU21D;56520;49.066;8.660;2023-10-19T07:36:21;11.20;99.59
69359;HTU21D;56520;49.066;8.660;2023-10-19T07:38:46;11.22;99.64
69359;HTU21D;56520;49.066;8.660;2023-10-19T07:41:13;11.23;99.70
69359;HTU21D;56520;49.066;8.660;2023-10-19T07:43:39;11.24;99.66
69359;HTU21D;56520;49.066;8.660;2023-10-19T07:46:04;11.27;99.64
69359;HTU21D;56520;49.066;8.660;2023-10-19T07:48:30;11.29;99.64
69359;HTU21D;56520;49.066;8.660;2023-10-19T07:50:55;11.34;99.62
69359;HTU21D;56520;49.066;8.660;2023-10-19T07:53:21;11.39;99.61
69359;HTU21D;56520;49.066;8.660;2023-10-19T07:55:47;11.43;99.58
69359;HTU21D;56520;49.066;8.660;2023-10-19T07:58:12;11.48;99.59
69359;HTU21D;56520;49.066;8.660;2023-10-19T08:00:38;11.56;99.61
69359;HTU21D;56520;49.066;8.660;2023-10-19T08:03:04;11.64;99.60
69359;HTU21D;56520;49.066;8.660;2023-10-19T08:05:31;11.71;99.59
69359;HTU21D;56520;49.066;8.660;2023-10-19T08:07:57;11.79;99.69
69359;HTU21D;56520;49.066;8.660;2023-10-19T08:10:24;11.85;99.60
69359;HTU21D;56520;49.066;8.660;2023-10-19T08:12:52;11.93;99.67
69359;HTU21D;56520;49.066;8.660;2023-10-19T08:15:18;12.02;99.65
69359;HTU21D;56520;49.066;8.660;2023-10-19T08:17:48;12.11;99.62
69359;HTU21D;56520;49.066;8.660;2023-10-19T08:20:15;12.21;99.64
69359;HTU21D;56520;49.066;8.660;2023-10-19T08:22:50;12.32;99.69
69359;HTU21D;56520;49.066;8.660;2023-10-19T08:25:16;12.38;99.67
69359;HTU21D;56520;49.066;8.660;2023-10-19T08:27:42;12.50;99.78
69359;HTU21D;56520;49.066;8.660;2023-10-19T08:30:11;12.53;99.71
69359;HTU21D;56520;49.066;8.660;2023-10-19T08:32:38;12.63;99.74
69359;HTU21D;56520;49.066;8.660;2023-10-19T08:35:05;12.71;99.67
69359;HTU21D;56520;49.066;8.660;2023-10-19T08:37:31;12.82;99.71
69359;HTU21D;56520;49.066;8.660;2023-10-19T08:39:56;13.02;99.79
69359;HTU21D;56520;49.066;8.660;2023-10-19T08:42:23;13.34;99.96
69359;HTU21D;56520;49.066;8.660;2023-10-19T08:44:49;13.63;100.00
69359;HTU21D;56520;49.066;8.660;2023-10-19T08:47:14;13.93;100.11
69359;HTU21D;56520;49.066;8.660;2023-10-19T08:49:41;14.09;100.07
69359;HTU21D;56520;49.066;8.660;2023-10-19T08:52:07;14.17;100.10
69359;HTU21D;56520;49.066;8.660;2023-10-19T08:54:32;14.23;100.10
69359;HTU21D;56520;49.066;8.660;2023-10-19T08:56:59;14.22;100.07
69359;HTU21D;56520;49.066;8.660;2023-10-19T08:59:25;14.22;100.06
69359;HTU21D;56520;49.066;8.660;2023-10-19T09:02:00;14.28;100.12
69359;HTU21D;56520;49.066;8.660;2023-10-19T09:04:25;14.43;100.13
69359;HTU21D;56520;49.066;8.660;2023-10-19T09:06:53;14.60;100.13
69359;HTU21D;56520;49.066;8.660;2023-10-19T09:09:20;14.81;100.08
69359;HTU21D;56520;49.066;8.660;2023-10-19T09:11:47;14.99;100.00
69359;HTU21D;56520;49.066;8.660;2023-10-19T09:14:14;15.31;99.94
69359;HTU21D;56520;49.066;8.660;2023-10-19T09:17:06;15.44;99.74
69359;HTU21D;56520;49.066;8.660;2023-10-19T09:19:41;15.44;99.51
69359;HTU21D;56520;49.066;8.660;2023-10-19T09:22:08;15.49;99.35
69359;HTU21D;56520;49.066;8.660;2023-10-19T09:24:42;15.44;99.01
69359;HTU21D;56520;49.066;8.660;2023-10-19T09:27:07;15.41;98.75
69359;HTU21D;56520;49.066;8.660;2023-10-19T09:29:33;15.54;98.48
69359;HTU21D;56520;49.066;8.660;2023-10-19T09:31:59;15.67;98.07
69359;HTU21D;56520;49.066;8.660;2023-10-19T09:34:29;15.81;97.58
69359;HTU21D;56520;49.066;8.660;2023-10-19T09:36:59;15.98;97.23
69359;HTU21D;56520;49.066;8.660;2023-10-19T09:39:27;16.19;96.85
69359;HTU21D;56520;49.066;8.660;2023-10-19T09:42:00;16.22;96.22
69359;HTU21D;56520;49.066;8.660;2023-10-19T09:44:28;16.17;95.85
69359;HTU21D;56520;49.066;8.660;2023-10-19T09:46:57;16.10;95.75
69359;HTU21D;56520;49.066;8.660;2023-10-19T09:49:24;16.08;95.66
69359;HTU21D;56520;49.066;8.660;2023-10-19T09:51:50;16.21;95.63
69359;HTU21D;56520;49.066;8.660;2023-10-19T09:56:50;16.73;95.31
69359;HTU21D;56520;49.066;8.660;2023-10-19T09:59:33;16.96;94.69
69359;HTU21D;56520;49.066;8.660;2023-10-19T10:02:08;17.08;93.64
69359;HTU21D;56520;49.066;8.660;2023-10-19T10:04:34;17.28;93.18
69359;HTU21D;56520;49.066;8.660;2023-10-19T10:07:01;17.32;92.85
69359;HTU21D;56520;49.066;8.660;2023-10-19T10:09:29;17.29;92.59
69359;HTU21D;56520;49.066;8.660;2023-10-19T10:11:55;17.22;92.62
69359;HTU21D;56520;49.066;8.660;2023-10-19T10:14:25;17.17;92.63
69359;HTU21D;56520;49.066;8.660;2023-10-19T10:17:03;17.05;92.77
69359;HTU21D;56520;49.066;8.660;2023-10-19T10:19:30;17.01;92.92
69359;HTU21D;56520;49.066;8.660;2023-10-19T10:22:09;17.01;92.99
69359;HTU21D;56520;49.066;8.660;2023-10-19T10:24:43;17.01;92.88
69359;HTU21D;56520;49.066;8.660;2023-10-19T10:27:09;16.98;92.79
69359;HTU21D;56520;49.066;8.660;2023-10-19T10:29:36;16.92;92.80
69359;HTU21D;56520;49.066;8.660;2023-10-19T10:32:02;16.86;92.97
69359;HTU21D;56520;49.066;8.660;2023-10-19T10:37:03;16.79;93.17
69359;HTU21D;56520;49.066;8.660;2023-10-19T10:39:29;16.76;93.29
69359;HTU21D;56520;49.066;8.660;2023-10-19T10:42:00;16.76;93.25
69359;HTU21D;56520;49.066;8.660;2023-10-19T10:44:47;16.74;93.32
69359;HTU21D;56520;49.066;8.660;2023-10-19T10:47:20;16.72;93.41
69359;HTU21D;56520;49.066;8.660;2023-10-19T10:54:58;16.65;93.66
69359;HTU21D;56520;49.066;8.660;2023-10-19T10:57:29;16.64;93.75
69359;HTU21D;56520;49.066;8.660;2023-10-19T11:02:41;16.56;93.89
69359;HTU21D;56520;49.066;8.660;2023-10-19T11:05:12;16.51;94.01
69359;HTU21D;56520;49.066;8.660;2023-10-19T11:08:02;16.47;94.13
69359;HTU21D;56520;49.066;8.660;2023-10-19T11:10:27;16.48;94.29
69359;HTU21D;56520;49.066;8.660;2023-10-19T11:13:00;16.46;94.26
69359;HTU21D;56520;49.066;8.660;2023-10-19T11:15:25;16.45;94.36
69359;HTU21D;56520;49.066;8.660;2023-10-19T11:17:51;16.44;94.43
69359;HTU21D;56520;49.066;8.660;2023-10-19T11:20:24;16.44;94.48
69359;HTU21D;56520;49.066;8.660;2023-10-19T11:22:51;16.42;94.49
69359;HTU21D;56520;49.066;8.660;2023-10-19T11:25:19;16.39;94.69
69359;HTU21D;56520;49.066;8.660;2023-10-19T11:27:44;16.35;94.84
69359;HTU21D;56520;49.066;8.660;2023-10-19T11:30:10;16.33;94.98
69359;HTU21D;56520;49.066;8.660;2023-10-19T11:32:37;16.32;95.07
69359;HTU21D;56520;49.066;8.660;2023-10-19T11:35:04;16.30;95.23
69359;HTU21D;56520;49.066;8.660;2023-10-19T11:37:29;16.29;95.34
69359;HTU21D;56520;49.066;8.660;2023-10-19T11:39:55;16.28;95.46
69359;HTU21D;56520;49.066;8.660;2023-10-19T11:42:20;16.25;95.54
69359;HTU21D;56520;49.066;8.660;2023-10-19T11:44:46;16.24;95.73
69359;HTU21D;56520;49.066;8.660;2023-10-19T11:47:11;16.21;95.85
69359;HTU21D;56520;49.066;8.660;2023-10-19T11:49:38;16.21;95.98
69359;HTU21D;56520;49.066;8.660;2023-10-19T11:52:05;16.22;96.31
69359;HTU21D;56520;49.066;8.660;2023-10-19T11:54:33;16.18;96.19
69359;HTU21D;56520;49.066;8.660;2023-10-19T11:56:58;16.13;96.27
69359;HTU21D;56520;49.066;8.660;2023-10-19T11:59:24;16.13;96.55
69359;HTU21D;56520;49.066;8.660;2023-10-19T12:01:51;16.13;96.54
69359;HTU21D;56520;49.066;8.660;2023-10-19T12:04:17;16.14;96.60
69359;HTU21D;56520;49.066;8.660;2023-10-19T12:06:43;16.15;96.74
69359;HTU21D;56520;49.066;8.660;2023-10-19T12:09:08;16.14;96.71
69359;HTU21D;56520;49.066;8.660;2023-10-19T12:11:40;16.18;96.87
69359;HTU21D;56520;49.066;8.660;2023-10-19T12:14:06;16.22;97.03
69359;HTU21D;56520;49.066;8.660;2023-10-19T12:16:36;16.27;97.10
69359;HTU21D;56520;49.066;8.660;2023-10-19T12:19:02;16.28;97.07
69359;HTU21D;56520;49.066;8.660;2023-10-19T12:21:28;16.31;97.10
69359;HTU21D;56520;49.066;8.660;2023-10-19T12:23:56;16.32;97.14
69359;HTU21D;56520;49.066;8.660;2023-10-19T12:26:22;16.33;97.18
69359;HTU21D;56520;49.066;8.660;2023-10-19T12:28:48;16.33;97.23
69359;HTU21D;56520;49.066;8.660;2023-10-19T12:31:14;16.35;97.25
69359;HTU21D;56520;49.066;8.660;2023-10-19T12:33:40;16.39;97.23
69359;HTU21D;56520;49.066;8.660;2023-10-19T12:36:07;16.42;97.21
69359;HTU21D;56520;49.066;8.660;2023-10-19T12:38:51;16.45;97.15
69359;HTU21D;56520;49.066;8.660;2023-10-19T12:41:19;16.48;97.17
69359;HTU21D;56520;49.066;8.660;2023-10-19T12:43:44;16.50;97.19
69359;HTU21D;56520;49.066;8.660;2023-10-19T12:46:11;16.54;97.16
69359;HTU21D;56520;49.066;8.660;2023-10-19T12:48:39;16.58;97.20
69359;HTU21D;56520;49.066;8.660;2023-10-19T12:51:04;16.62;97.22
69359;HTU21D;56520;49.066;8.660;2023-10-19T12:53:32;16.67;97.22
69359;HTU21D;56520;49.066;8.660;2023-10-19T12:55:59;16.70;97.18
69359;HTU21D;56520;49.066;8.660;2023-10-19T12:58:25;16.75;97.23
69359;HTU21D;56520;49.066;8.660;2023-10-19T13:00:53;16.76;97.25
69359;HTU21D;56520;49.066;8.660;2023-10-19T13:03:19;16.76;97.32
69359;HTU21D;56520;49.066;8.660;2023-10-19T13:05:45;16.76;97.29
69359;HTU21D;56520;49.066;8.660;2023-10-19T13:08:13;16.74;97.25
69359;HTU21D;56520;49.066;8.660;2023-10-19T13:10:40;16.72;97.23
69359;HTU21D;56520;49.066;8.660;2023-10-19T13:13:08;16.69;97.24
69359;HTU21D;56520;49.066;8.660;2023-10-19T13:15:37;16.66;97.28
69359;HTU21D;56520;49.066;8.660;2023-10-19T13:18:04;16.65;97.29
69359;HTU21D;56520;49.066;8.660;2023-10-19T13:20:31;16.61;97.36
69359;HTU21D;56520;49.066;8.660;2023-10-19T13:23:04;16.61;97.43
69359;HTU21D;56520;49.066;8.660;2023-10-19T13:25:31;16.61;97.50
69359;HTU21D;56520;49.066;8.660;2023-10-19T13:28:26;16.62;97.55
69359;HTU21D;56520;49.066;8.660;2023-10-19T13:30:53;16.61;97.58
69359;HTU21D;56520;49.066;8.660;2023-10-19T13:33:19;16.61;97.60
69359;HTU21D;56520;49.066;8.660;2023-10-19T13:35:47;16.61;97.66
69359;HTU21D;56520;49.066;8.660;2023-10-19T13:38:17;16.62;97.76
69359;HTU21D;56520;49.066;8.660;2023-10-19T13:40:43;16.65;97.78
69359;HTU21D;56520;49.066;8.660;2023-10-19T13:43:10;16.66;97.77
69359;HTU21D;56520;49.066;8.660;2023-10-19T13:45:39;16.65;97.81
69359;HTU21D;56520;49.066;8.660;2023-10-19T13:48:07;16.65;97.78
69359;HTU21D;56520;49.066;8.660;2023-10-19T13:50:33;16.59;97.76
69359;HTU21D;56520;49.066;8.660;2023-10-19T13:53:00;16.54;97.75
69359;HTU21D;56520;49.066;8.660;2023-10-19T13:55:29;16.54;97.78
69359;HTU21D;56520;49.066;8.660;2023-10-19T13:57:55;16.51;97.81
69359;HTU21D;56520;49.066;8.660;2023-10-19T14:00:24;16.50;97.84
69359;HTU21D;56520;49.066;8.660;2023-10-19T14:02:51;16.50;97.89
69359;HTU21D;56520;49.066;8.660;2023-10-19T14:05:18;16.48;97.90
69359;HTU21D;56520;49.066;8.660;2023-10-19T14:07:50;16.49;97.90
69359;HTU21D;56520;49.066;8.660;2023-10-19T14:10:15;16.47;97.94
69359;HTU21D;56520;49.066;8.660;2023-10-19T14:12:42;16.43;97.90
69359;HTU21D;56520;49.066;8.660;2023-10-19T14:15:18;16.42;97.96
69359;HTU21D;56520;49.066;8.660;2023-10-19T14:17:44;16.36;97.95
69359;HTU21D;56520;49.066;8.660;2023-10-19T14:20:12;16.34;97.96
69359;HTU21D;56520;49.066;8.660;2023-10-19T14:22:43;16.29;97.94
69359;HTU21D;56520;49.066;8.660;2023-10-19T14:25:10;16.24;97.94
69359;HTU21D;56520;49.066;8.660;2023-10-19T14:27:40;16.19;97.94
69359;HTU21D;56520;49.066;8.660;2023-10-19T14:30:11;16.14;97.96
69359;HTU21D;56520;49.066;8.660;2023-10-19T14:32:44;16.12;97.98
69359;HTU21D;56520;49.066;8.660;2023-10-19T14:35:15;16.11;97.94
69359;HTU21D;56520;49.066;8.660;2023-10-19T14:37:42;16.07;97.94
69359;HTU21D;56520;49.066;8.660;2023-10-19T14:40:12;16.08;97.94
69359;HTU21D;56520;49.066;8.660;2023-10-19T14:42:42;16.10;97.92
69359;HTU21D;56520;49.066;8.660;2023-10-19T14:45:09;16.11;97.89
69359;HTU21D;56520;49.066;8.660;2023-10-19T14:47:38;16.07;97.86
69359;HTU21D;56520;49.066;8.660;2023-10-19T14:50:12;16.08;97.89
69359;HTU21D;56520;49.066;8.660;2023-10-19T14:52:43;16.10;97.89
69359;HTU21D;56520;49.066;8.660;2023-10-19T14:55:10;16.12;97.90
69359;HTU21D;56520;49.066;8.660;2023-10-19T14:57:36;16.14;97.88
69359;HTU21D;56520;49.066;8.660;2023-10-19T15:00:04;16.14;97.87
69359;HTU21D;56520;49.066;8.660;2023-10-19T15:02:40;16.14;97.87
69359;HTU21D;56520;49.066;8.660;2023-10-19T15:05:06;16.16;97.90
69359;HTU21D;56520;49.066;8.660;2023-10-19T15:07:32;16.18;97.93
69359;HTU21D;56520;49.066;8.660;2023-10-19T15:09:57;16.20;97.94
69359;HTU21D;56520;49.066;8.660;2023-10-19T15:12:23;16.22;97.91
69359;HTU21D;56520;49.066;8.660;2023-10-19T15:14:49;16.22;97.91
69359;HTU21D;56520;49.066;8.660;2023-10-19T15:17:15;16.22;97.92
69359;HTU21D;56520;49.066;8.660;2023-10-19T15:19:40;16.20;97.94
69359;HTU21D;56520;49.066;8.660;2023-10-19T15:22:06;16.19;97.95
69359;HTU21D;56520;49.066;8.660;2023-10-19T15:24:31;16.16;98.04
69359;HTU21D;56520;49.066;8.660;2023-10-19T15:26:57;16.14;98.03
69359;HTU21D;56520;49.066;8.660;2023-10-19T15:29:22;16.10;98.10
69359;HTU21D;56520;49.066;8.660;2023-10-19T15:31:49;16.06;98.10
69359;HTU21D;56520;49.066;8.660;2023-10-19T15:34:14;16.04;98.10
69359;HTU21D;56520;49.066;8.660;2023-10-19T15:36:41;16.03;98.10
69359;HTU21D;56520;49.066;8.660;2023-10-19T15:39:07;15.98;98.07